sensor_id;sensor_type;location;lat;lon;timestamp;P1;durP1;ratioP1;P2;durP2;ratioP2
46036;SDS011;31769;49.304;8.428;2023-07-29T00:01:51;2.70;;;2.50;;
46036;SDS011;31769;49.304;8.428;2023-07-29T00:04:53;2.10;;;2.00;;
46036;SDS011;31769;49.304;8.428;2023-07-29T00:07:54;2.97;;;2.00;;
46036;SDS011;31769;49.304;8.428;2023-07-29T00:10:55;2.30;;;1.60;;
46036;SDS011;31769;49.304;8.428;2023-07-29T00:13:55;3.72;;;2.40;;
46036;SDS011;31769;49.304;8.428;2023-07-29T00:16:56;2.22;;;1.80;;
46036;SDS011;31769;49.304;8.428;2023-07-29T00:19:56;4.40;;;1.60;;
46036;SDS011;31769;49.304;8.428;2023-07-29T00:22:57;2.70;;;1.63;;
46036;SDS011;31769;49.304;8.428;2023-07-29T00:25:58;2.33;;;1.80;;
46036;SDS011;31769;49.304;8.428;2023-07-29T00:28:59;2.40;;;2.25;;
46036;SDS011;31769;49.304;8.428;2023-07-29T00:31:59;2.58;;;2.25;;
46036;SDS011;31769;49.304;8.428;2023-07-29T00:35:00;3.45;;;1.95;;
46036;SDS011;31769;49.304;8.428;2023-07-29T00:38:01;2.03;;;1.90;;
46036;SDS011;31769;49.304;8.428;2023-07-29T00:41:02;2.10;;;1.90;;
46036;SDS011;31769;49.304;8.428;2023-07-29T00:44:03;3.05;;;1.90;;
46036;SDS011;31769;49.304;8.428;2023-07-29T00:47:04;3.88;;;1.70;;
46036;SDS011;31769;49.304;8.428;2023-07-29T00:50:06;4.47;;;1.60;;
46036;SDS011;31769;49.304;8.428;2023-07-29T00:53:08;1.85;;;1.60;;
46036;SDS011;31769;49.304;8.428;2023-07-29T00:56:08;1.55;;;1.35;;
46036;SDS011;31769;49.304;8.428;2023-07-29T00:59:12;3.35;;;1.63;;
46036;SDS011;31769;49.304;8.428;2023-07-29T01:02:13;3.47;;;1.70;;
46036;SDS011;31769;49.304;8.428;2023-07-29T01:05:14;3.75;;;1.55;;
46036;SDS011;31769;49.304;8.428;2023-07-29T01:08:29;3.47;;;1.55;;
46036;SDS011;31769;49.304;8.428;2023-07-29T01:18:26;2.03;;;1.42;;
46036;SDS011;31769;49.304;8.428;2023-07-29T01:21:29;5.53;;;1.67;;
46036;SDS011;31769;49.304;8.428;2023-07-29T01:24:31;3.58;;;1.75;;
46036;SDS011;31769;49.304;8.428;2023-07-29T01:27:31;1.45;;;1.35;;
46036;SDS011;31769;49.304;8.428;2023-07-29T01:30:34;2.45;;;1.50;;
46036;SDS011;31769;49.304;8.428;2023-07-29T01:33:42;2.55;;;1.27;;
46036;SDS011;31769;49.304;8.428;2023-07-29T01:36:50;2.50;;;1.33;;
46036;SDS011;31769;49.304;8.428;2023-07-29T01:39:54;4.40;;;1.88;;
46036;SDS011;31769;49.304;8.428;2023-07-29T01:42:59;3.75;;;1.60;;
46036;SDS011;31769;49.304;8.428;2023-07-29T01:46:00;4.28;;;2.20;;
46036;SDS011;31769;49.304;8.428;2023-07-29T01:49:01;4.15;;;1.85;;
46036;SDS011;31769;49.304;8.428;2023-07-29T01:52:01;6.15;;;2.22;;
46036;SDS011;31769;49.304;8.428;2023-07-29T01:55:02;3.03;;;1.75;;
46036;SDS011;31769;49.304;8.428;2023-07-29T01:58:03;3.40;;;1.80;;
46036;SDS011;31769;49.304;8.428;2023-07-29T02:01:05;2.88;;;1.85;;
46036;SDS011;31769;49.304;8.428;2023-07-29T02:04:05;3.10;;;1.70;;
46036;SDS011;31769;49.304;8.428;2023-07-29T02:07:06;4.05;;;2.05;;
46036;SDS011;31769;49.304;8.428;2023-07-29T02:10:07;4.47;;;1.75;;
46036;SDS011;31769;49.304;8.428;2023-07-29T02:13:08;2.13;;;1.77;;
46036;SDS011;31769;49.304;8.428;2023-07-29T02:16:11;6.20;;;1.55;;
46036;SDS011;31769;49.304;8.428;2023-07-29T02:19:11;1.33;;;1.25;;
46036;SDS011;31769;49.304;8.428;2023-07-29T02:22:13;2.15;;;1.35;;
46036;SDS011;31769;49.304;8.428;2023-07-29T02:25:14;4.57;;;1.60;;
46036;SDS011;31769;49.304;8.428;2023-07-29T02:28:15;3.42;;;1.60;;
46036;SDS011;31769;49.304;8.428;2023-07-29T02:31:16;1.50;;;1.30;;
46036;SDS011;31769;49.304;8.428;2023-07-29T02:34:20;1.95;;;1.60;;
46036;SDS011;31769;49.304;8.428;2023-07-29T02:37:21;3.85;;;1.50;;
46036;SDS011;31769;49.304;8.428;2023-07-29T02:40:21;4.10;;;1.35;;
46036;SDS011;31769;49.304;8.428;2023-07-29T02:43:23;6.05;;;1.60;;
46036;SDS011;31769;49.304;8.428;2023-07-29T02:46:23;3.45;;;1.60;;
46036;SDS011;31769;49.304;8.428;2023-07-29T02:49:24;4.80;;;1.90;;
46036;SDS011;31769;49.304;8.428;2023-07-29T02:52:25;4.80;;;2.05;;
46036;SDS011;31769;49.304;8.428;2023-07-29T02:55:26;2.55;;;2.10;;
46036;SDS011;31769;49.304;8.428;2023-07-29T02:58:26;3.10;;;1.90;;
46036;SDS011;31769;49.304;8.428;2023-07-29T03:01:27;4.13;;;2.45;;
46036;SDS011;31769;49.304;8.428;2023-07-29T03:04:28;4.55;;;2.03;;
46036;SDS011;31769;49.304;8.428;2023-07-29T03:07:28;3.75;;;2.22;;
46036;SDS011;31769;49.304;8.428;2023-07-29T03:10:29;3.20;;;1.83;;
46036;SDS011;31769;49.304;8.428;2023-07-29T03:13:30;4.75;;;1.65;;
46036;SDS011;31769;49.304;8.428;2023-07-29T03:16:30;18.88;;;5.70;;
46036;SDS011;31769;49.304;8.428;2023-07-29T03:19:33;2.42;;;2.05;;
46036;SDS011;31769;49.304;8.428;2023-07-29T03:22:33;4.07;;;2.30;;
46036;SDS011;31769;49.304;8.428;2023-07-29T03:25:34;7.15;;;2.50;;
46036;SDS011;31769;49.304;8.428;2023-07-29T03:28:35;2.58;;;2.38;;
46036;SDS011;31769;49.304;8.428;2023-07-29T03:31:40;3.42;;;2.55;;
46036;SDS011;31769;49.304;8.428;2023-07-29T03:34:40;5.50;;;2.75;;
46036;SDS011;31769;49.304;8.428;2023-07-29T03:37:41;6.65;;;2.83;;
46036;SDS011;31769;49.304;8.428;2023-07-29T03:40:42;4.45;;;2.53;;
46036;SDS011;31769;49.304;8.428;2023-07-29T03:43:43;5.35;;;2.25;;
46036;SDS011;31769;49.304;8.428;2023-07-29T03:46:44;4.10;;;2.50;;
46036;SDS011;31769;49.304;8.428;2023-07-29T03:49:45;5.95;;;3.42;;
46036;SDS011;31769;49.304;8.428;2023-07-29T03:52:47;3.30;;;2.95;;
46036;SDS011;31769;49.304;8.428;2023-07-29T03:55:48;5.38;;;2.60;;
46036;SDS011;31769;49.304;8.428;2023-07-29T03:58:50;6.68;;;2.67;;
46036;SDS011;31769;49.304;8.428;2023-07-29T04:01:52;5.50;;;2.47;;
46036;SDS011;31769;49.304;8.428;2023-07-29T04:04:53;4.05;;;2.17;;
46036;SDS011;31769;49.304;8.428;2023-07-29T04:07:53;3.78;;;2.67;;
46036;SDS011;31769;49.304;8.428;2023-07-29T04:10:54;3.85;;;2.70;;
46036;SDS011;31769;49.304;8.428;2023-07-29T04:13:55;4.82;;;2.42;;
46036;SDS011;31769;49.304;8.428;2023-07-29T04:16:56;4.72;;;2.30;;
46036;SDS011;31769;49.304;8.428;2023-07-29T04:19:56;4.53;;;2.40;;
46036;SDS011;31769;49.304;8.428;2023-07-29T04:23:02;3.28;;;1.85;;
46036;SDS011;31769;49.304;8.428;2023-07-29T04:26:03;6.05;;;2.55;;
46036;SDS011;31769;49.304;8.428;2023-07-29T04:29:04;4.18;;;3.08;;
46036;SDS011;31769;49.304;8.428;2023-07-29T04:32:04;4.65;;;3.40;;
46036;SDS011;31769;49.304;8.428;2023-07-29T04:35:06;12.43;;;4.20;;
46036;SDS011;31769;49.304;8.428;2023-07-29T04:38:09;5.45;;;4.18;;
46036;SDS011;31769;49.304;8.428;2023-07-29T04:41:10;8.85;;;4.68;;
46036;SDS011;31769;49.304;8.428;2023-07-29T04:44:11;5.60;;;3.80;;
46036;SDS011;31769;49.304;8.428;2023-07-29T04:47:11;6.82;;;3.67;;
46036;SDS011;31769;49.304;8.428;2023-07-29T04:50:12;5.13;;;3.33;;
46036;SDS011;31769;49.304;8.428;2023-07-29T04:53:13;7.07;;;3.20;;
46036;SDS011;31769;49.304;8.428;2023-07-29T04:56:13;3.80;;;2.60;;
46036;SDS011;31769;49.304;8.428;2023-07-29T04:59:14;4.50;;;2.80;;
46036;SDS011;31769;49.304;8.428;2023-07-29T05:02:15;3.40;;;2.83;;
46036;SDS011;31769;49.304;8.428;2023-07-29T05:05:15;4.97;;;2.70;;
46036;SDS011;31769;49.304;8.428;2023-07-29T05:08:16;4.85;;;3.13;;
46036;SDS011;31769;49.304;8.428;2023-07-29T05:11:17;6.63;;;3.03;;
46036;SDS011;31769;49.304;8.428;2023-07-29T05:14:18;5.60;;;3.03;;
46036;SDS011;31769;49.304;8.428;2023-07-29T05:17:18;3.97;;;3.08;;
46036;SDS011;31769;49.304;8.428;2023-07-29T05:20:19;3.17;;;2.78;;
46036;SDS011;31769;49.304;8.428;2023-07-29T05:23:19;6.05;;;2.80;;
46036;SDS011;31769;49.304;8.428;2023-07-29T05:26:20;10.02;;;3.40;;
46036;SDS011;31769;49.304;8.428;2023-07-29T05:29:21;8.15;;;3.30;;
46036;SDS011;31769;49.304;8.428;2023-07-29T05:32:22;4.07;;;3.70;;
46036;SDS011;31769;49.304;8.428;2023-07-29T05:35:23;5.95;;;4.22;;
46036;SDS011;31769;49.304;8.428;2023-07-29T05:38:25;4.70;;;4.07;;
46036;SDS011;31769;49.304;8.428;2023-07-29T05:41:26;5.65;;;4.25;;
46036;SDS011;31769;49.304;8.428;2023-07-29T05:44:28;6.57;;;5.00;;
46036;SDS011;31769;49.304;8.428;2023-07-29T05:47:30;5.25;;;4.13;;
46036;SDS011;31769;49.304;8.428;2023-07-29T05:50:31;6.93;;;3.85;;
46036;SDS011;31769;49.304;8.428;2023-07-29T05:53:32;6.63;;;4.03;;
46036;SDS011;31769;49.304;8.428;2023-07-29T05:56:32;6.05;;;3.78;;
46036;SDS011;31769;49.304;8.428;2023-07-29T05:59:33;6.78;;;4.15;;
46036;SDS011;31769;49.304;8.428;2023-07-29T06:02:34;4.53;;;3.63;;
46036;SDS011;31769;49.304;8.428;2023-07-29T06:05:34;6.30;;;3.55;;
46036;SDS011;31769;49.304;8.428;2023-07-29T06:08:36;5.22;;;3.55;;
46036;SDS011;31769;49.304;8.428;2023-07-29T06:11:37;3.92;;;3.60;;
46036;SDS011;31769;49.304;8.428;2023-07-29T06:14:38;4.82;;;3.53;;
46036;SDS011;31769;49.304;8.428;2023-07-29T06:17:39;4.18;;;3.58;;
46036;SDS011;31769;49.304;8.428;2023-07-29T06:20:40;9.32;;;2.90;;
46036;SDS011;31769;49.304;8.428;2023-07-29T06:23:42;6.03;;;3.72;;
46036;SDS011;31769;49.304;8.428;2023-07-29T06:26:43;6.90;;;3.72;;
46036;SDS011;31769;49.304;8.428;2023-07-29T06:29:44;6.90;;;4.07;;
46036;SDS011;31769;49.304;8.428;2023-07-29T06:32:45;5.82;;;3.97;;
46036;SDS011;31769;49.304;8.428;2023-07-29T06:35:46;5.47;;;4.40;;
46036;SDS011;31769;49.304;8.428;2023-07-29T06:38:47;5.05;;;4.63;;
46036;SDS011;31769;49.304;8.428;2023-07-29T06:41:48;5.88;;;4.97;;
46036;SDS011;31769;49.304;8.428;2023-07-29T06:44:48;5.03;;;4.07;;
46036;SDS011;31769;49.304;8.428;2023-07-29T06:47:52;7.03;;;4.40;;
46036;SDS011;31769;49.304;8.428;2023-07-29T06:50:53;6.55;;;4.70;;
46036;SDS011;31769;49.304;8.428;2023-07-29T06:53:55;5.00;;;4.50;;
46036;SDS011;31769;49.304;8.428;2023-07-29T06:56:56;5.32;;;4.00;;
46036;SDS011;31769;49.304;8.428;2023-07-29T06:59:57;4.80;;;4.30;;
46036;SDS011;31769;49.304;8.428;2023-07-29T07:02:58;5.45;;;3.55;;
46036;SDS011;31769;49.304;8.428;2023-07-29T07:05:59;8.75;;;3.92;;
46036;SDS011;31769;49.304;8.428;2023-07-29T07:09:02;4.90;;;3.78;;
46036;SDS011;31769;49.304;8.428;2023-07-29T07:12:04;10.10;;;3.92;;
46036;SDS011;31769;49.304;8.428;2023-07-29T07:15:05;3.47;;;3.13;;
46036;SDS011;31769;49.304;8.428;2023-07-29T07:18:07;6.35;;;3.10;;
46036;SDS011;31769;49.304;8.428;2023-07-29T07:21:08;5.47;;;3.00;;
46036;SDS011;31769;49.304;8.428;2023-07-29T07:24:08;3.72;;;2.80;;
46036;SDS011;31769;49.304;8.428;2023-07-29T07:27:09;3.30;;;2.20;;
46036;SDS011;31769;49.304;8.428;2023-07-29T07:30:10;5.32;;;2.30;;
46036;SDS011;31769;49.304;8.428;2023-07-29T07:33:11;2.72;;;2.30;;
46036;SDS011;31769;49.304;8.428;2023-07-29T07:36:12;3.90;;;2.17;;
46036;SDS011;31769;49.304;8.428;2023-07-29T07:39:13;2.65;;;2.15;;
46036;SDS011;31769;49.304;8.428;2023-07-29T07:42:14;4.65;;;2.28;;
46036;SDS011;31769;49.304;8.428;2023-07-29T07:45:15;2.55;;;1.60;;
46036;SDS011;31769;49.304;8.428;2023-07-29T07:48:18;2.67;;;1.90;;
46036;SDS011;31769;49.304;8.428;2023-07-29T07:51:20;2.08;;;1.88;;
46036;SDS011;31769;49.304;8.428;2023-07-29T07:54:20;2.22;;;2.03;;
46036;SDS011;31769;49.304;8.428;2023-07-29T07:57:21;3.08;;;1.90;;
46036;SDS011;31769;49.304;8.428;2023-07-29T08:00:22;4.63;;;1.88;;
46036;SDS011;31769;49.304;8.428;2023-07-29T08:03:23;4.45;;;1.70;;
46036;SDS011;31769;49.304;8.428;2023-07-29T08:06:26;2.10;;;1.30;;
46036;SDS011;31769;49.304;8.428;2023-07-29T08:09:27;1.75;;;1.65;;
46036;SDS011;31769;49.304;8.428;2023-07-29T08:12:28;2.22;;;1.70;;
46036;SDS011;31769;49.304;8.428;2023-07-29T08:15:29;2.40;;;1.70;;
46036;SDS011;31769;49.304;8.428;2023-07-29T08:18:30;3.97;;;1.58;;
46036;SDS011;31769;49.304;8.428;2023-07-29T08:21:30;3.47;;;1.42;;
46036;SDS011;31769;49.304;8.428;2023-07-29T08:24:31;2.38;;;1.20;;
46036;SDS011;31769;49.304;8.428;2023-07-29T08:27:33;2.22;;;1.70;;
46036;SDS011;31769;49.304;8.428;2023-07-29T08:30:34;5.57;;;1.65;;
46036;SDS011;31769;49.304;8.428;2023-07-29T08:33:35;3.17;;;1.70;;
46036;SDS011;31769;49.304;8.428;2023-07-29T08:36:35;2.72;;;1.75;;
46036;SDS011;31769;49.304;8.428;2023-07-29T08:39:36;5.32;;;1.42;;
46036;SDS011;31769;49.304;8.428;2023-07-29T08:42:37;2.28;;;1.50;;
46036;SDS011;31769;49.304;8.428;2023-07-29T08:45:41;1.60;;;1.50;;
46036;SDS011;31769;49.304;8.428;2023-07-29T08:48:44;2.97;;;1.60;;
46036;SDS011;31769;49.304;8.428;2023-07-29T08:51:46;3.53;;;1.85;;
46036;SDS011;31769;49.304;8.428;2023-07-29T08:54:48;1.77;;;1.30;;
46036;SDS011;31769;49.304;8.428;2023-07-29T08:57:48;1.50;;;1.40;;
46036;SDS011;31769;49.304;8.428;2023-07-29T09:00:50;1.48;;;1.38;;
46036;SDS011;31769;49.304;8.428;2023-07-29T09:03:51;2.72;;;1.83;;
46036;SDS011;31769;49.304;8.428;2023-07-29T09:06:52;4.28;;;1.33;;
46036;SDS011;31769;49.304;8.428;2023-07-29T09:09:55;4.55;;;1.52;;
46036;SDS011;31769;49.304;8.428;2023-07-29T09:12:56;2.08;;;1.23;;
46036;SDS011;31769;49.304;8.428;2023-07-29T09:15:57;2.10;;;1.08;;
46036;SDS011;31769;49.304;8.428;2023-07-29T09:19:00;2.58;;;1.13;;
46036;SDS011;31769;49.304;8.428;2023-07-29T09:22:03;1.70;;;0.90;;
46036;SDS011;31769;49.304;8.428;2023-07-29T09:25:04;3.55;;;0.77;;
46036;SDS011;31769;49.304;8.428;2023-07-29T09:28:12;1.58;;;0.60;;
46036;SDS011;31769;49.304;8.428;2023-07-29T09:31:18;1.85;;;0.40;;
46036;SDS011;31769;49.304;8.428;2023-07-29T09:34:23;2.05;;;0.77;;
46036;SDS011;31769;49.304;8.428;2023-07-29T09:37:24;1.65;;;0.70;;
46036;SDS011;31769;49.304;8.428;2023-07-29T09:40:25;3.13;;;0.60;;
46036;SDS011;31769;49.304;8.428;2023-07-29T09:43:29;3.00;;;0.80;;
46036;SDS011;31769;49.304;8.428;2023-07-29T09:46:37;2.13;;;0.50;;
46036;SDS011;31769;49.304;8.428;2023-07-29T09:49:38;1.48;;;0.63;;
46036;SDS011;31769;49.304;8.428;2023-07-29T09:52:39;1.83;;;0.70;;
46036;SDS011;31769;49.304;8.428;2023-07-29T09:55:40;1.02;;;0.60;;
46036;SDS011;31769;49.304;8.428;2023-07-29T09:58:46;1.38;;;0.50;;
46036;SDS011;31769;49.304;8.428;2023-07-29T10:01:48;1.40;;;0.77;;
46036;SDS011;31769;49.304;8.428;2023-07-29T10:04:50;0.98;;;0.73;;
46036;SDS011;31769;49.304;8.428;2023-07-29T10:07:55;1.08;;;0.68;;
46036;SDS011;31769;49.304;8.428;2023-07-29T10:10:57;1.77;;;0.60;;
46036;SDS011;31769;49.304;8.428;2023-07-29T10:14:00;0.85;;;0.60;;
46036;SDS011;31769;49.304;8.428;2023-07-29T10:17:01;0.68;;;0.60;;
46036;SDS011;31769;49.304;8.428;2023-07-29T10:20:03;1.48;;;0.63;;
46036;SDS011;31769;49.304;8.428;2023-07-29T10:23:07;1.73;;;0.65;;
46036;SDS011;31769;49.304;8.428;2023-07-29T10:26:09;1.95;;;0.63;;
46036;SDS011;31769;49.304;8.428;2023-07-29T10:29:12;2.80;;;1.15;;
46036;SDS011;31769;49.304;8.428;2023-07-29T10:32:14;2.35;;;0.85;;
46036;SDS011;31769;49.304;8.428;2023-07-29T10:35:16;1.88;;;0.77;;
46036;SDS011;31769;49.304;8.428;2023-07-29T10:38:17;0.63;;;0.57;;
46036;SDS011;31769;49.304;8.428;2023-07-29T10:41:18;2.25;;;0.88;;
46036;SDS011;31769;49.304;8.428;2023-07-29T10:47:39;1.98;;;0.80;;
46036;SDS011;31769;49.304;8.428;2023-07-29T10:50:39;2.35;;;0.60;;
46036;SDS011;31769;49.304;8.428;2023-07-29T10:53:40;0.70;;;0.63;;
46036;SDS011;31769;49.304;8.428;2023-07-29T10:56:42;2.38;;;0.73;;
46036;SDS011;31769;49.304;8.428;2023-07-29T10:59:54;0.60;;;0.43;;
46036;SDS011;31769;49.304;8.428;2023-07-29T11:02:59;2.72;;;0.70;;
46036;SDS011;31769;49.304;8.428;2023-07-29T11:06:05;2.05;;;0.55;;
46036;SDS011;31769;49.304;8.428;2023-07-29T11:09:38;0.68;;;0.50;;
46036;SDS011;31769;49.304;8.428;2023-07-29T11:13:02;1.38;;;0.73;;
46036;SDS011;31769;49.304;8.428;2023-07-29T11:16:03;1.85;;;0.85;;
46036;SDS011;31769;49.304;8.428;2023-07-29T11:19:05;1.88;;;0.55;;
46036;SDS011;31769;49.304;8.428;2023-07-29T11:22:12;0.63;;;0.63;;
46036;SDS011;31769;49.304;8.428;2023-07-29T11:25:14;0.40;;;0.40;;
46036;SDS011;31769;49.304;8.428;2023-07-29T11:28:15;1.63;;;0.90;;
46036;SDS011;31769;49.304;8.428;2023-07-29T11:31:16;0.52;;;0.52;;
46036;SDS011;31769;49.304;8.428;2023-07-29T11:34:30;0.93;;;0.50;;
46036;SDS011;31769;49.304;8.428;2023-07-29T11:37:32;0.65;;;0.40;;
46036;SDS011;31769;49.304;8.428;2023-07-29T11:40:34;0.75;;;0.45;;
46036;SDS011;31769;49.304;8.428;2023-07-29T11:43:35;0.70;;;0.57;;
46036;SDS011;31769;49.304;8.428;2023-07-29T11:46:37;2.15;;;0.50;;
46036;SDS011;31769;49.304;8.428;2023-07-29T11:49:40;0.40;;;0.35;;
46036;SDS011;31769;49.304;8.428;2023-07-29T11:52:42;0.73;;;0.40;;
46036;SDS011;31769;49.304;8.428;2023-07-29T11:55:43;1.40;;;0.47;;
46036;SDS011;31769;49.304;8.428;2023-07-29T11:58:44;0.47;;;0.47;;
46036;SDS011;31769;49.304;8.428;2023-07-29T12:01:45;0.85;;;0.45;;
46036;SDS011;31769;49.304;8.428;2023-07-29T12:04:46;0.80;;;0.60;;
46036;SDS011;31769;49.304;8.428;2023-07-29T12:07:47;2.05;;;0.60;;
46036;SDS011;31769;49.304;8.428;2023-07-29T12:10:48;0.88;;;0.60;;
46036;SDS011;31769;49.304;8.428;2023-07-29T12:13:49;2.88;;;0.47;;
46036;SDS011;31769;49.304;8.428;2023-07-29T12:16:50;0.88;;;0.52;;
46036;SDS011;31769;49.304;8.428;2023-07-29T12:19:53;0.70;;;0.60;;
46036;SDS011;31769;49.304;8.428;2023-07-29T12:22:55;0.50;;;0.40;;
46036;SDS011;31769;49.304;8.428;2023-07-29T12:25:58;1.52;;;0.52;;
46036;SDS011;31769;49.304;8.428;2023-07-29T12:29:10;0.73;;;0.50;;
46036;SDS011;31769;49.304;8.428;2023-07-29T12:32:14;0.55;;;0.55;;
46036;SDS011;31769;49.304;8.428;2023-07-29T12:35:15;1.08;;;0.68;;
46036;SDS011;31769;49.304;8.428;2023-07-29T12:38:20;1.05;;;0.55;;
46036;SDS011;31769;49.304;8.428;2023-07-29T12:41:21;0.40;;;0.40;;
46036;SDS011;31769;49.304;8.428;2023-07-29T12:44:27;0.55;;;0.55;;
46036;SDS011;31769;49.304;8.428;2023-07-29T12:47:32;0.55;;;0.55;;
46036;SDS011;31769;49.304;8.428;2023-07-29T12:50:33;1.45;;;0.45;;
46036;SDS011;31769;49.304;8.428;2023-07-29T12:53:33;0.47;;;0.43;;
46036;SDS011;31769;49.304;8.428;2023-07-29T12:56:34;1.23;;;0.70;;
46036;SDS011;31769;49.304;8.428;2023-07-29T12:59:35;7.13;;;0.40;;
46036;SDS011;31769;49.304;8.428;2023-07-29T13:02:35;1.70;;;0.40;;
46036;SDS011;31769;49.304;8.428;2023-07-29T13:05:36;0.65;;;0.40;;
46036;SDS011;31769;49.304;8.428;2023-07-29T13:08:37;0.28;;;0.17;;
46036;SDS011;31769;49.304;8.428;2023-07-29T13:11:37;0.82;;;0.30;;
46036;SDS011;31769;49.304;8.428;2023-07-29T13:14:38;1.52;;;0.40;;
46036;SDS011;31769;49.304;8.428;2023-07-29T13:17:39;0.98;;;0.52;;
46036;SDS011;31769;49.304;8.428;2023-07-29T13:20:39;0.68;;;0.40;;
46036;SDS011;31769;49.304;8.428;2023-07-29T13:23:40;0.55;;;0.30;;
46036;SDS011;31769;49.304;8.428;2023-07-29T13:26:40;1.00;;;0.40;;
46036;SDS011;31769;49.304;8.428;2023-07-29T13:29:42;2.47;;;0.30;;
46036;SDS011;31769;49.304;8.428;2023-07-29T13:32:43;0.75;;;0.30;;
46036;SDS011;31769;49.304;8.428;2023-07-29T13:35:44;0.38;;;0.20;;
46036;SDS011;31769;49.304;8.428;2023-07-29T13:38:45;0.20;;;0.20;;
46036;SDS011;31769;49.304;8.428;2023-07-29T13:41:45;1.48;;;0.30;;
46036;SDS011;31769;49.304;8.428;2023-07-29T13:44:46;0.65;;;0.30;;
46036;SDS011;31769;49.304;8.428;2023-07-29T13:47:47;0.75;;;0.32;;
46036;SDS011;31769;49.304;8.428;2023-07-29T13:50:48;1.13;;;0.50;;
46036;SDS011;31769;49.304;8.428;2023-07-29T13:53:49;0.68;;;0.28;;
46036;SDS011;31769;49.304;8.428;2023-07-29T13:56:49;0.73;;;0.38;;
46036;SDS011;31769;49.304;8.428;2023-07-29T13:59:50;0.50;;;0.22;;
46036;SDS011;31769;49.304;8.428;2023-07-29T14:02:51;0.47;;;0.20;;
46036;SDS011;31769;49.304;8.428;2023-07-29T14:05:51;1.63;;;0.38;;
46036;SDS011;31769;49.304;8.428;2023-07-29T14:08:52;1.60;;;0.40;;
46036;SDS011;31769;49.304;8.428;2023-07-29T14:16:16;0.45;;;0.30;;
46036;SDS011;31769;49.304;8.428;2023-07-29T14:19:16;0.75;;;0.20;;
46036;SDS011;31769;49.304;8.428;2023-07-29T14:22:17;0.40;;;0.10;;
46036;SDS011;31769;49.304;8.428;2023-07-29T14:25:18;0.20;;;0.17;;
46036;SDS011;31769;49.304;8.428;2023-07-29T14:28:18;0.73;;;0.25;;
46036;SDS011;31769;49.304;8.428;2023-07-29T14:31:19;0.50;;;0.38;;
46036;SDS011;31769;49.304;8.428;2023-07-29T14:34:20;0.20;;;0.20;;
46036;SDS011;31769;49.304;8.428;2023-07-29T14:37:20;0.85;;;0.20;;
46036;SDS011;31769;49.304;8.428;2023-07-29T14:40:21;4.05;;;0.30;;
46036;SDS011;31769;49.304;8.428;2023-07-29T14:43:22;0.40;;;0.20;;
46036;SDS011;31769;49.304;8.428;2023-07-29T14:46:23;0.50;;;0.28;;
46036;SDS011;31769;49.304;8.428;2023-07-29T14:49:24;2.97;;;0.35;;
46036;SDS011;31769;49.304;8.428;2023-07-29T14:52:24;0.63;;;0.28;;
46036;SDS011;31769;49.304;8.428;2023-07-29T14:55:25;0.40;;;0.20;;
46036;SDS011;31769;49.304;8.428;2023-07-29T14:58:26;0.20;;;0.20;;
46036;SDS011;31769;49.304;8.428;2023-07-29T15:01:26;1.40;;;0.22;;
46036;SDS011;31769;49.304;8.428;2023-07-29T15:04:27;0.40;;;0.15;;
46036;SDS011;31769;49.304;8.428;2023-07-29T15:07:28;0.63;;;0.20;;
46036;SDS011;31769;49.304;8.428;2023-07-29T15:10:29;0.40;;;0.30;;
46036;SDS011;31769;49.304;8.428;2023-07-29T15:13:29;1.23;;;0.28;;
46036;SDS011;31769;49.304;8.428;2023-07-29T15:16:30;1.58;;;0.30;;
46036;SDS011;31769;49.304;8.428;2023-07-29T15:19:31;0.57;;;0.30;;
46036;SDS011;31769;49.304;8.428;2023-07-29T15:22:31;0.43;;;0.17;;
46036;SDS011;31769;49.304;8.428;2023-07-29T15:25:32;0.38;;;0.35;;
46036;SDS011;31769;49.304;8.428;2023-07-29T15:28:33;0.80;;;0.40;;
46036;SDS011;31769;49.304;8.428;2023-07-29T15:31:34;0.40;;;0.30;;
46036;SDS011;31769;49.304;8.428;2023-07-29T15:34:35;1.13;;;1.00;;
46036;SDS011;31769;49.304;8.428;2023-07-29T15:37:36;1.45;;;1.00;;
46036;SDS011;31769;49.304;8.428;2023-07-29T15:40:37;9.25;;;8.02;;
46036;SDS011;31769;49.304;8.428;2023-07-29T15:43:38;1.15;;;1.00;;
46036;SDS011;31769;49.304;8.428;2023-07-29T15:46:38;2.28;;;1.67;;
46036;SDS011;31769;49.304;8.428;2023-07-29T15:49:39;2.25;;;2.05;;
46036;SDS011;31769;49.304;8.428;2023-07-29T15:52:40;3.70;;;0.80;;
46036;SDS011;31769;49.304;8.428;2023-07-29T15:55:42;1.33;;;0.60;;
46036;SDS011;31769;49.304;8.428;2023-07-29T15:58:43;2.33;;;0.88;;
46036;SDS011;31769;49.304;8.428;2023-07-29T16:01:43;0.77;;;0.77;;
46036;SDS011;31769;49.304;8.428;2023-07-29T16:04:44;2.67;;;0.70;;
46036;SDS011;31769;49.304;8.428;2023-07-29T16:07:45;2.58;;;1.23;;
46036;SDS011;31769;49.304;8.428;2023-07-29T16:10:45;2.25;;;0.85;;
46036;SDS011;31769;49.304;8.428;2023-07-29T16:13:46;1.00;;;1.00;;
46036;SDS011;31769;49.304;8.428;2023-07-29T16:16:47;2.05;;;1.00;;
46036;SDS011;31769;49.304;8.428;2023-07-29T16:19:55;1.25;;;0.70;;
46036;SDS011;31769;49.304;8.428;2023-07-29T16:22:57;1.20;;;1.13;;
46036;SDS011;31769;49.304;8.428;2023-07-29T16:25:58;1.88;;;1.05;;
46036;SDS011;31769;49.304;8.428;2023-07-29T16:28:59;2.35;;;1.20;;
46036;SDS011;31769;49.304;8.428;2023-07-29T16:32:00;1.33;;;1.23;;
46036;SDS011;31769;49.304;8.428;2023-07-29T16:35:00;2.08;;;1.25;;
46036;SDS011;31769;49.304;8.428;2023-07-29T16:38:01;2.75;;;1.33;;
46036;SDS011;31769;49.304;8.428;2023-07-29T16:41:02;2.10;;;1.35;;
46036;SDS011;31769;49.304;8.428;2023-07-29T16:44:03;3.40;;;1.35;;
46036;SDS011;31769;49.304;8.428;2023-07-29T16:47:04;2.75;;;1.67;;
46036;SDS011;31769;49.304;8.428;2023-07-29T16:50:05;1.65;;;1.55;;
46036;SDS011;31769;49.304;8.428;2023-07-29T16:53:06;2.45;;;1.65;;
46036;SDS011;31769;49.304;8.428;2023-07-29T16:56:06;1.33;;;1.23;;
46036;SDS011;31769;49.304;8.428;2023-07-29T16:59:07;2.85;;;1.27;;
46036;SDS011;31769;49.304;8.428;2023-07-29T17:02:08;2.83;;;1.63;;
46036;SDS011;31769;49.304;8.428;2023-07-29T17:05:09;1.33;;;0.90;;
46036;SDS011;31769;49.304;8.428;2023-07-29T17:08:10;2.53;;;0.90;;
46036;SDS011;31769;49.304;8.428;2023-07-29T17:11:10;0.98;;;0.90;;
46036;SDS011;31769;49.304;8.428;2023-07-29T17:14:11;0.70;;;0.70;;
46036;SDS011;31769;49.304;8.428;2023-07-29T17:17:12;1.63;;;0.95;;
46036;SDS011;31769;49.304;8.428;2023-07-29T17:20:12;1.15;;;0.80;;
46036;SDS011;31769;49.304;8.428;2023-07-29T17:23:14;1.15;;;0.90;;
46036;SDS011;31769;49.304;8.428;2023-07-29T17:26:15;2.15;;;0.95;;
46036;SDS011;31769;49.304;8.428;2023-07-29T17:29:15;1.33;;;1.13;;
46036;SDS011;31769;49.304;8.428;2023-07-29T17:32:16;1.27;;;0.90;;
46036;SDS011;31769;49.304;8.428;2023-07-29T17:35:16;3.83;;;1.33;;
46036;SDS011;31769;49.304;8.428;2023-07-29T17:38:19;1.27;;;1.17;;
46036;SDS011;31769;49.304;8.428;2023-07-29T17:41:19;1.75;;;1.33;;
46036;SDS011;31769;49.304;8.428;2023-07-29T17:44:20;2.88;;;1.20;;
46036;SDS011;31769;49.304;8.428;2023-07-29T17:47:21;1.40;;;1.30;;
46036;SDS011;31769;49.304;8.428;2023-07-29T17:50:21;1.20;;;1.10;;
46036;SDS011;31769;49.304;8.428;2023-07-29T17:53:23;2.90;;;1.20;;
46036;SDS011;31769;49.304;8.428;2023-07-29T17:56:23;1.73;;;1.05;;
46036;SDS011;31769;49.304;8.428;2023-07-29T17:59:26;1.10;;;0.98;;
46036;SDS011;31769;49.304;8.428;2023-07-29T18:02:26;1.38;;;0.90;;
46036;SDS011;31769;49.304;8.428;2023-07-29T18:05:27;1.23;;;0.90;;
46036;SDS011;31769;49.304;8.428;2023-07-29T18:08:28;2.13;;;1.00;;
46036;SDS011;31769;49.304;8.428;2023-07-29T18:11:29;2.15;;;0.93;;
46036;SDS011;31769;49.304;8.428;2023-07-29T18:14:29;1.50;;;0.85;;
46036;SDS011;31769;49.304;8.428;2023-07-29T18:17:30;1.20;;;1.10;;
46036;SDS011;31769;49.304;8.428;2023-07-29T18:20:31;1.38;;;1.25;;
46036;SDS011;31769;49.304;8.428;2023-07-29T18:23:32;2.50;;;1.02;;
46036;SDS011;31769;49.304;8.428;2023-07-29T18:26:32;1.35;;;1.23;;
46036;SDS011;31769;49.304;8.428;2023-07-29T18:29:35;1.30;;;1.20;;